sensor_id;sensor_type;location;lat;lon;timestamp;pressure;altitude;pressure_sealevel;temperature;humidity
9676;BME280;4876;42.656;23.292;2023-04-21T00:02:24;93946.22;;;10.74;66.63
9676;BME280;4876;42.656;23.292;2023-04-21T00:04:51;93925.81;;;10.71;66.49
9676;BME280;4876;42.656;23.292;2023-04-21T00:07:19;93942.28;;;10.81;66.91
9676;BME280;4876;42.656;23.292;2023-04-21T00:09:46;93943.59;;;10.74;66.63
9676;BME280;4876;42.656;23.292;2023-04-21T00:12:13;93951.47;;;10.74;66.69
9676;BME280;4876;42.656;23.292;2023-04-21T00:14:40;93946.47;;;10.82;66.85
9676;BME280;4876;42.656;23.292;2023-04-21T00:17:07;93934.72;;;10.79;66.59
9676;BME280;4876;42.656;23.292;2023-04-21T00:19:34;93948.84;;;10.74;66.33
9676;BME280;4876;42.656;23.292;2023-04-21T00:22:00;93943.00;;;10.69;66.85
9676;BME280;4876;42.656;23.292;2023-04-21T00:24:30;93947.31;;;10.94;66.24
9676;BME280;4876;42.656;23.292;2023-04-21T00:26:56;93938.69;;;10.85;65.98
9676;BME280;4876;42.656;23.292;2023-04-21T00:29:23;93937.81;;;11.02;65.31
9676;BME280;4876;42.656;23.292;2023-04-21T00:31:50;93943.84;;;10.82;65.73
9676;BME280;4876;42.656;23.292;2023-04-21T00:34:17;93942.22;;;10.68;65.68
9676;BME280;4876;42.656;23.292;2023-04-21T00:36:44;93947.03;;;10.66;65.97
9676;BME280;4876;42.656;23.292;2023-04-21T00:39:11;93944.88;;;10.68;66.13
9676;BME280;4876;42.656;23.292;2023-04-21T00:41:40;93951.66;;;10.90;65.47
9676;BME280;4876;42.656;23.292;2023-04-21T00:44:08;93948.00;;;10.83;65.37
9676;BME280;4876;42.656;23.292;2023-04-21T00:46:35;93941.34;;;10.56;65.96
9676;BME280;4876;42.656;23.292;2023-04-21T00:49:04;93941.41;;;10.76;65.69
9676;BME280;4876;42.656;23.292;2023-04-21T00:51:33;93932.28;;;10.74;65.84
9676;BME280;4876;42.656;23.292;2023-04-21T00:54:01;93946.69;;;10.68;65.45
9676;BME280;4876;42.656;23.292;2023-04-21T00:56:30;93937.00;;;10.60;65.64
9676;BME280;4876;42.656;23.292;2023-04-21T00:58:59;93941.50;;;10.80;65.50
9676;BME280;4876;42.656;23.292;2023-04-21T01:01:27;93935.44;;;10.88;65.06
9676;BME280;4876;42.656;23.292;2023-04-21T01:03:56;93940.38;;;10.90;64.92
9676;BME280;4876;42.656;23.292;2023-04-21T01:06:23;93934.09;;;10.82;65.10
9676;BME280;4876;42.656;23.292;2023-04-21T01:08:51;93910.88;;;10.63;65.57
9676;BME280;4876;42.656;23.292;2023-04-21T01:11:18;93930.97;;;10.59;66.08
9676;BME280;4876;42.656;23.292;2023-04-21T01:13:45;93932.91;;;10.71;66.19
9676;BME280;4876;42.656;23.292;2023-04-21T01:16:16;93932.16;;;10.70;66.18
9676;BME280;4876;42.656;23.292;2023-04-21T01:18:43;93939.38;;;10.52;66.50
9676;BME280;4876;42.656;23.292;2023-04-21T01:21:10;93939.81;;;10.55;66.39
9676;BME280;4876;42.656;23.292;2023-04-21T01:23:39;93938.59;;;10.52;67.15
9676;BME280;4876;42.656;23.292;2023-04-21T01:26:06;93938.50;;;10.69;66.38
9676;BME280;4876;42.656;23.292;2023-04-21T01:28:33;93931.50;;;10.73;66.40
9676;BME280;4876;42.656;23.292;2023-04-21T01:31:00;93934.06;;;10.61;66.47
9676;BME280;4876;42.656;23.292;2023-04-21T01:33:27;93933.16;;;10.57;66.89
9676;BME280;4876;42.656;23.292;2023-04-21T01:35:54;93930.97;;;10.59;66.87
9676;BME280;4876;42.656;23.292;2023-04-21T01:38:21;93923.34;;;10.66;66.37
9676;BME280;4876;42.656;23.292;2023-04-21T01:40:51;93924.38;;;10.53;66.98
9676;BME280;4876;42.656;23.292;2023-04-21T01:43:20;93925.06;;;10.41;66.98
9676;BME280;4876;42.656;23.292;2023-04-21T01:45:48;93918.94;;;10.29;67.39
9676;BME280;4876;42.656;23.292;2023-04-21T01:48:15;93919.59;;;10.26;67.73
9676;BME280;4876;42.656;23.292;2023-04-21T01:50:41;93910.75;;;10.21;67.84
9676;BME280;4876;42.656;23.292;2023-04-21T01:53:08;93922.22;;;10.26;67.75
9676;BME280;4876;42.656;23.292;2023-04-21T01:55:35;93919.72;;;10.29;67.23
9676;BME280;4876;42.656;23.292;2023-04-21T01:58:03;93920.66;;;10.24;67.41
9676;BME280;4876;42.656;23.292;2023-04-21T02:00:30;93920.19;;;10.31;67.30
9676;BME280;4876;42.656;23.292;2023-04-21T02:02:57;93913.72;;;10.20;67.43
9676;BME280;4876;42.656;23.292;2023-04-21T02:05:24;93925.91;;;10.24;67.92
9676;BME280;4876;42.656;23.292;2023-04-21T02:07:51;93926.69;;;10.16;68.03
9676;BME280;4876;42.656;23.292;2023-04-21T02:10:17;93913.56;;;10.16;67.89
9676;BME280;4876;42.656;23.292;2023-04-21T02:12:44;93920.34;;;10.17;67.97
9676;BME280;4876;42.656;23.292;2023-04-21T02:15:12;93918.06;;;10.16;68.33
9676;BME280;4876;42.656;23.292;2023-04-21T02:17:39;93924.06;;;10.16;68.83
9676;BME280;4876;42.656;23.292;2023-04-21T02:20:08;93916.63;;;10.18;68.50
9676;BME280;4876;42.656;23.292;2023-04-21T02:22:36;93919.97;;;10.07;68.77
9676;BME280;4876;42.656;23.292;2023-04-21T02:25:04;93918.53;;;10.09;68.76
9676;BME280;4876;42.656;23.292;2023-04-21T02:27:30;93915.38;;;9.95;69.59
9676;BME280;4876;42.656;23.292;2023-04-21T02:29:57;93914.78;;;9.89;70.15
9676;BME280;4876;42.656;23.292;2023-04-21T02:32:25;93910.91;;;9.87;69.81
9676;BME280;4876;42.656;23.292;2023-04-21T02:34:52;93914.28;;;9.96;69.86
9676;BME280;4876;42.656;23.292;2023-04-21T02:37:19;93805.19;;;9.31;70.07
9676;BME280;4876;42.656;23.292;2023-04-21T02:39:46;93912.56;;;10.00;70.39
9676;BME280;4876;42.656;23.292;2023-04-21T02:42:13;93917.34;;;9.98;70.35
9676;BME280;4876;42.656;23.292;2023-04-21T02:44:40;93918.38;;;10.14;70.12
9676;BME280;4876;42.656;23.292;2023-04-21T02:47:07;93923.91;;;10.21;70.08
9676;BME280;4876;42.656;23.292;2023-04-21T02:49:39;93921.41;;;10.34;69.78
9676;BME280;4876;42.656;23.292;2023-04-21T02:52:06;93927.63;;;10.12;70.34
9676;BME280;4876;42.656;23.292;2023-04-21T02:54:33;93917.72;;;10.17;69.84
9676;BME280;4876;42.656;23.292;2023-04-21T02:56:59;93913.25;;;10.27;69.71
9676;BME280;4876;42.656;23.292;2023-04-21T02:59:27;93920.56;;;10.42;69.00
9676;BME280;4876;42.656;23.292;2023-04-21T03:01:53;93918.84;;;10.46;69.33
9676;BME280;4876;42.656;23.292;2023-04-21T03:04:20;93920.38;;;10.47;69.15
9676;BME280;4876;42.656;23.292;2023-04-21T03:06:50;93923.00;;;10.47;69.02
9676;BME280;4876;42.656;23.292;2023-04-21T03:09:17;93922.19;;;10.55;69.02
9676;BME280;4876;42.656;23.292;2023-04-21T03:11:43;93912.66;;;10.71;67.76
9676;BME280;4876;42.656;23.292;2023-04-21T03:14:10;93923.75;;;10.56;68.41
9676;BME280;4876;42.656;23.292;2023-04-21T03:16:37;93921.56;;;10.58;68.28
9676;BME280;4876;42.656;23.292;2023-04-21T03:19:04;93919.03;;;10.62;68.22
9676;BME280;4876;42.656;23.292;2023-04-21T03:21:30;93915.47;;;10.66;68.33
9676;BME280;4876;42.656;23.292;2023-04-21T03:23:59;93914.59;;;10.62;68.08
9676;BME280;4876;42.656;23.292;2023-04-21T03:26:25;93928.41;;;10.50;68.21
9676;BME280;4876;42.656;23.292;2023-04-21T03:28:52;93923.09;;;10.59;68.01
9676;BME280;4876;42.656;23.292;2023-04-21T03:31:19;93919.44;;;10.51;68.50
9676;BME280;4876;42.656;23.292;2023-04-21T03:33:46;93927.00;;;10.53;68.64
9676;BME280;4876;42.656;23.292;2023-04-21T03:36:13;93933.53;;;10.47;68.26
9676;BME280;4876;42.656;23.292;2023-04-21T03:38:40;93932.75;;;10.46;68.41
9676;BME280;4876;42.656;23.292;2023-04-21T03:41:08;93937.00;;;10.60;67.93
9676;BME280;4876;42.656;23.292;2023-04-21T03:43:34;93935.81;;;10.57;68.13
9676;BME280;4876;42.656;23.292;2023-04-21T03:46:01;93932.06;;;10.58;68.02
9676;BME280;4876;42.656;23.292;2023-04-21T03:48:28;93928.22;;;10.56;68.14
9676;BME280;4876;42.656;23.292;2023-04-21T03:50:56;93935.47;;;10.59;68.04
9676;BME280;4876;42.656;23.292;2023-04-21T03:53:23;93936.91;;;10.56;67.89
9676;BME280;4876;42.656;23.292;2023-04-21T03:55:50;93941.34;;;10.56;68.18
9676;BME280;4876;42.656;23.292;2023-04-21T03:58:18;93942.78;;;10.53;68.31
9676;BME280;4876;42.656;23.292;2023-04-21T04:00:45;93948.97;;;10.48;68.65
9676;BME280;4876;42.656;23.292;2023-04-21T04:03:11;93947.69;;;10.63;68.05
9676;BME280;4876;42.656;23.292;2023-04-21T04:05:38;93947.75;;;10.75;68.08
9676;BME280;4876;42.656;23.292;2023-04-21T04:08:05;93952.19;;;10.84;67.52
9676;BME280;4876;42.656;23.292;2023-04-21T04:10:32;93949.72;;;10.78;67.41
9676;BME280;4876;42.656;23.292;2023-04-21T04:12:58;93958.78;;;10.90;67.20
9676;BME280;4876;42.656;23.292;2023-04-21T04:15:27;93968.59;;;11.22;67.13
9676;BME280;4876;42.656;23.292;2023-04-21T04:17:54;93960.94;;;11.50;65.49
9676;BME280;4876;42.656;23.292;2023-04-21T04:20:21;93964.19;;;12.13;63.56
9676;BME280;4876;42.656;23.292;2023-04-21T04:22:47;93967.38;;;12.31;62.47
9676;BME280;4876;42.656;23.292;2023-04-21T04:25:14;93965.41;;;12.53;62.60
9676;BME280;4876;42.656;23.292;2023-04-21T04:27:41;93978.34;;;12.09;62.23
9676;BME280;4876;42.656;23.292;2023-04-21T04:30:09;93985.34;;;11.93;62.83
9676;BME280;4876;42.656;23.292;2023-04-21T04:32:37;93987.88;;;11.68;63.16
9676;BME280;4876;42.656;23.292;2023-04-21T04:35:06;93975.34;;;11.65;64.02
9676;BME280;4876;42.656;23.292;2023-04-21T04:37:35;93986.28;;;11.55;64.13
9676;BME280;4876;42.656;23.292;2023-04-21T04:40:02;93987.38;;;11.54;64.48
9676;BME280;4876;42.656;23.292;2023-04-21T04:42:31;93985.78;;;11.41;65.02
9676;BME280;4876;42.656;23.292;2023-04-21T04:44:59;93989.72;;;11.35;65.48
9676;BME280;4876;42.656;23.292;2023-04-21T04:47:26;93976.97;;;11.24;65.44
9676;BME280;4876;42.656;23.292;2023-04-21T04:49:55;93994.50;;;11.53;65.04
9676;BME280;4876;42.656;23.292;2023-04-21T04:52:22;93992.84;;;11.49;65.10
9676;BME280;4876;42.656;23.292;2023-04-21T04:54:48;93994.19;;;11.55;65.20
9676;BME280;4876;42.656;23.292;2023-04-21T04:57:15;93991.97;;;11.45;65.71
9676;BME280;4876;42.656;23.292;2023-04-21T04:59:42;93994.22;;;11.67;65.57
9676;BME280;4876;42.656;23.292;2023-04-21T05:02:09;93994.22;;;11.67;65.15
9676;BME280;4876;42.656;23.292;2023-04-21T05:04:36;93999.72;;;11.62;65.19
9676;BME280;4876;42.656;23.292;2023-04-21T05:07:04;93993.22;;;11.59;65.31
9676;BME280;4876;42.656;23.292;2023-04-21T05:09:32;93992.44;;;11.59;65.09
9676;BME280;4876;42.656;23.292;2023-04-21T05:11:59;93999.72;;;11.62;65.57
9676;BME280;4876;42.656;23.292;2023-04-21T05:14:26;94001.44;;;11.58;65.39
9676;BME280;4876;42.656;23.292;2023-04-21T05:16:53;93992.69;;;11.87;64.94
9676;BME280;4876;42.656;23.292;2023-04-21T05:19:20;94002.41;;;11.74;65.14
9676;BME280;4876;42.656;23.292;2023-04-21T05:21:47;93999.28;;;11.72;65.68
9676;BME280;4876;42.656;23.292;2023-04-21T05:24:15;94000.78;;;11.61;66.54
9676;BME280;4876;42.656;23.292;2023-04-21T05:26:47;93988.81;;;11.84;66.36
9676;BME280;4876;42.656;23.292;2023-04-21T05:29:14;94002.94;;;12.01;65.75
9676;BME280;4876;42.656;23.292;2023-04-21T05:31:41;93998.41;;;11.89;65.92
9676;BME280;4876;42.656;23.292;2023-04-21T05:34:08;93998.06;;;11.91;65.69
9676;BME280;4876;42.656;23.292;2023-04-21T05:36:34;93995.19;;;11.83;66.25
9676;BME280;4876;42.656;23.292;2023-04-21T05:39:01;94003.00;;;11.92;66.58
9676;BME280;4876;42.656;23.292;2023-04-21T05:41:29;93995.47;;;12.03;65.71
9676;BME280;4876;42.656;23.292;2023-04-21T05:43:56;94003.38;;;12.15;64.81
9676;BME280;4876;42.656;23.292;2023-04-21T05:46:23;94001.63;;;12.07;65.16
9676;BME280;4876;42.656;23.292;2023-04-21T05:48:50;93997.91;;;12.20;64.90
9676;BME280;4876;42.656;23.292;2023-04-21T05:51:17;94004.72;;;12.33;64.39
9676;BME280;4876;42.656;23.292;2023-04-21T05:53:44;94004.53;;;12.51;64.39
9676;BME280;4876;42.656;23.292;2023-04-21T05:56:11;93997.06;;;12.65;64.22
9676;BME280;4876;42.656;23.292;2023-04-21T05:58:40;93997.94;;;12.81;63.48
9676;BME280;4876;42.656;23.292;2023-04-21T06:01:07;94002.09;;;12.94;63.48
9676;BME280;4876;42.656;23.292;2023-04-21T06:03:34;93996.38;;;12.92;63.61
9676;BME280;4876;42.656;23.292;2023-04-21T06:06:02;93992.84;;;13.01;63.06
9676;BME280;4876;42.656;23.292;2023-04-21T06:08:29;94006.44;;;13.39;62.50
9676;BME280;4876;42.656;23.292;2023-04-21T06:10:55;93992.16;;;13.28;62.11
9676;BME280;4876;42.656;23.292;2023-04-21T06:13:22;93997.13;;;13.30;62.24
9676;BME280;4876;42.656;23.292;2023-04-21T06:15:52;93993.03;;;13.32;62.54
9676;BME280;4876;42.656;23.292;2023-04-21T06:18:19;93992.09;;;13.00;63.10
9676;BME280;4876;42.656;23.292;2023-04-21T06:20:49;93998.94;;;13.41;61.83
9676;BME280;4876;42.656;23.292;2023-04-21T06:23:16;93998.38;;;13.76;60.91
9676;BME280;4876;42.656;23.292;2023-04-21T06:25:43;93985.00;;;13.29;61.53
9676;BME280;4876;42.656;23.292;2023-04-21T06:28:09;93999.16;;;13.49;61.66
9676;BME280;4876;42.656;23.292;2023-04-21T06:30:36;94003.34;;;13.93;60.53
9676;BME280;4876;42.656;23.292;2023-04-21T06:33:05;93997.88;;;13.86;60.55
9676;BME280;4876;42.656;23.292;2023-04-21T06:35:32;93989.63;;;13.60;61.09
9676;BME280;4876;42.656;23.292;2023-04-21T06:37:58;93998.66;;;13.59;61.72
9676;BME280;4876;42.656;23.292;2023-04-21T06:40:25;93985.19;;;14.08;60.40
9676;BME280;4876;42.656;23.292;2023-04-21T06:42:52;93990.63;;;14.59;58.78
9676;BME280;4876;42.656;23.292;2023-04-21T06:45:19;93990.69;;;14.46;59.12
9676;BME280;4876;42.656;23.292;2023-04-21T06:47:46;93984.38;;;14.19;60.38
9676;BME280;4876;42.656;23.292;2023-04-21T06:50:14;93983.00;;;14.41;58.91
9676;BME280;4876;42.656;23.292;2023-04-21T06:52:41;93991.28;;;14.71;58.66
9676;BME280;4876;42.656;23.292;2023-04-21T06:55:08;93984.44;;;14.86;57.70
9676;BME280;4876;42.656;23.292;2023-04-21T06:57:35;93988.56;;;14.68;58.22
9676;BME280;4876;42.656;23.292;2023-04-21T07:00:02;93979.97;;;14.90;57.51
9676;BME280;4876;42.656;23.292;2023-04-21T07:02:30;93981.88;;;15.09;56.99
9676;BME280;4876;42.656;23.292;2023-04-21T07:04:57;93984.47;;;15.60;56.26
9676;BME280;4876;42.656;23.292;2023-04-21T07:07:25;93971.97;;;15.41;55.90
9676;BME280;4876;42.656;23.292;2023-04-21T07:09:52;93978.66;;;15.54;55.52
9676;BME280;4876;42.656;23.292;2023-04-21T07:12:18;93983.50;;;15.68;55.58
9676;BME280;4876;42.656;23.292;2023-04-21T07:14:45;93980.84;;;14.94;58.32
9676;BME280;4876;42.656;23.292;2023-04-21T07:17:12;93988.28;;;15.43;56.15
9676;BME280;4876;42.656;23.292;2023-04-21T07:19:39;93982.25;;;15.27;56.12
9676;BME280;4876;42.656;23.292;2023-04-21T07:22:06;93982.13;;;15.39;56.53
9676;BME280;4876;42.656;23.292;2023-04-21T07:24:34;93982.56;;;15.41;55.66
9676;BME280;4876;42.656;23.292;2023-04-21T07:27:01;93987.19;;;15.64;56.03
9676;BME280;4876;42.656;23.292;2023-04-21T07:29:28;93987.00;;;15.18;57.74
9676;BME280;4876;42.656;23.292;2023-04-21T07:31:55;93982.47;;;15.73;55.91
9676;BME280;4876;42.656;23.292;2023-04-21T07:34:23;93975.81;;;15.82;55.27
9676;BME280;4876;42.656;23.292;2023-04-21T07:36:50;93980.91;;;15.91;54.38
9676;BME280;4876;42.656;23.292;2023-04-21T07:39:17;93973.66;;;15.69;54.48
9676;BME280;4876;42.656;23.292;2023-04-21T07:41:45;93976.66;;;15.28;56.08
9676;BME280;4876;42.656;23.292;2023-04-21T07:44:12;93981.84;;;15.05;56.49
9676;BME280;4876;42.656;23.292;2023-04-21T07:46:39;93982.38;;;15.15;56.96
9676;BME280;4876;42.656;23.292;2023-04-21T07:49:06;93977.97;;;15.57;55.93
9676;BME280;4876;42.656;23.292;2023-04-21T07:51:32;93972.47;;;15.47;55.47
9676;BME280;4876;42.656;23.292;2023-04-21T07:53:59;93984.53;;;15.83;55.06
9676;BME280;4876;42.656;23.292;2023-04-21T07:56:26;93987.63;;;15.66;54.47
9676;BME280;4876;42.656;23.292;2023-04-21T07:58:54;93968.84;;;16.17;54.32
9676;BME280;4876;42.656;23.292;2023-04-21T08:01:21;93982.88;;;16.40;53.85
9676;BME280;4876;42.656;23.292;2023-04-21T08:03:49;93983.00;;;16.47;53.93
9676;BME280;4876;42.656;23.292;2023-04-21T08:06:15;93985.09;;;16.38;53.65
9676;BME280;4876;42.656;23.292;2023-04-21T08:08:42;93983.69;;;16.44;53.03
9676;BME280;4876;42.656;23.292;2023-04-21T08:11:09;93988.59;;;16.65;53.52
9676;BME280;4876;42.656;23.292;2023-04-21T08:13:36;93975.38;;;16.95;52.66
9676;BME280;4876;42.656;23.292;2023-04-21T08:16:04;93957.13;;;16.93;51.64
9676;BME280;4876;42.656;23.292;2023-04-21T08:21:16;93982.53;;;16.91;51.77
9676;BME280;4876;42.656;23.292;2023-04-21T08:23:44;93985.47;;;16.59;52.31
9676;BME280;4876;42.656;23.292;2023-04-21T08:26:10;93974.97;;;15.98;53.69
9676;BME280;4876;42.656;23.292;2023-04-21T08:28:37;93978.09;;;16.26;53.02
9676;BME280;4876;42.656;23.292;2023-04-21T08:31:06;93955.88;;;16.11;53.68
9676;BME280;4876;42.656;23.292;2023-04-21T08:33:33;93964.78;;;16.23;54.01
9676;BME280;4876;42.656;23.292;2023-04-21T08:35:59;93973.44;;;16.42;52.97
9676;BME280;4876;42.656;23.292;2023-04-21T08:38:27;93968.63;;;16.52;53.01
9676;BME280;4876;42.656;23.292;2023-04-21T08:40:54;93972.59;;;16.61;52.10
9676;BME280;4876;42.656;23.292;2023-04-21T08:43:24;93978.56;;;16.55;52.30
9676;BME280;4876;42.656;23.292;2023-04-21T08:45:51;93973.19;;;16.51;52.09
9676;BME280;4876;42.656;23.292;2023-04-21T08:48:21;93962.66;;;15.67;54.47
9676;BME280;4876;42.656;23.292;2023-04-21T08:50:50;93973.50;;;15.81;53.96
9676;BME280;4876;42.656;23.292;2023-04-21T08:53:16;93964.44;;;15.82;53.35
9676;BME280;4876;42.656;23.292;2023-04-21T08:55:44;93971.28;;;15.64;54.09
9676;BME280;4876;42.656;23.292;2023-04-21T08:58:11;93958.28;;;15.97;53.90
9676;BME280;4876;42.656;23.292;2023-04-21T09:00:38;93952.38;;;16.30;53.49
9676;BME280;4876;42.656;23.292;2023-04-21T09:03:06;93956.84;;;16.26;54.29
9676;BME280;4876;42.656;23.292;2023-04-21T09:05:34;93954.75;;;16.35;53.62
9676;BME280;4876;42.656;23.292;2023-04-21T09:08:09;93948.75;;;16.65;53.11
9676;BME280;4876;42.656;23.292;2023-04-21T09:10:42;93932.28;;;16.79;52.58
9676;BME280;4876;42.656;23.292;2023-04-21T09:13:11;93963.22;;;16.94;52.41
9676;BME280;4876;42.656;23.292;2023-04-21T09:15:38;93956.25;;;16.13;53.62
9676;BME280;4876;42.656;23.292;2023-04-21T09:18:10;93949.88;;;15.95;54.32
9676;BME280;4876;42.656;23.292;2023-04-21T09:20:39;93947.72;;;16.01;53.54
9676;BME280;4876;42.656;23.292;2023-04-21T09:23:06;93904.16;;;16.02;53.97
9676;BME280;4876;42.656;23.292;2023-04-21T09:25:33;93933.91;;;16.37;52.39
9676;BME280;4876;42.656;23.292;2023-04-21T09:28:00;93937.53;;;16.03;53.16
9676;BME280;4876;42.656;23.292;2023-04-21T09:30:27;93934.25;;;16.59;53.06
9676;BME280;4876;42.656;23.292;2023-04-21T09:32:55;93925.53;;;16.58;51.99
9676;BME280;4876;42.656;23.292;2023-04-21T09:35:26;93927.47;;;16.88;52.02
9676;BME280;4876;42.656;23.292;2023-04-21T09:37:55;93931.41;;;17.28;51.45
9676;BME280;4876;42.656;23.292;2023-04-21T09:40:21;93932.63;;;17.34;50.25
9676;BME280;4876;42.656;23.292;2023-04-21T09:42:48;93935.75;;;17.43;49.63
9676;BME280;4876;42.656;23.292;2023-04-21T09:45:16;93930.81;;;17.75;49.15
9676;BME280;4876;42.656;23.292;2023-04-21T09:47:47;93931.28;;;17.50;49.13
9676;BME280;4876;42.656;23.292;2023-04-21T09:50:15;93926.03;;;17.24;50.24
9676;BME280;4876;42.656;23.292;2023-04-21T09:52:43;93925.81;;;17.36;49.35
9676;BME280;4876;42.656;23.292;2023-04-21T09:55:13;93924.09;;;16.91;51.03
9676;BME280;4876;42.656;23.292;2023-04-21T09:57:41;93919.56;;;16.91;48.83
9676;BME280;4876;42.656;23.292;2023-04-21T10:00:10;93899.78;;;16.62;47.97
9676;BME280;4876;42.656;23.292;2023-04-21T10:02:41;93915.78;;;17.22;50.13
9676;BME280;4876;42.656;23.292;2023-04-21T10:05:10;93912.22;;;17.45;49.28
9676;BME280;4876;42.656;23.292;2023-04-21T10:07:37;93911.59;;;17.92;47.89
9676;BME280;4876;42.656;23.292;2023-04-21T10:10:08;93918.22;;;18.09;47.68
9676;BME280;4876;42.656;23.292;2023-04-21T10:12:40;93917.47;;;18.12;46.95
9676;BME280;4876;42.656;23.292;2023-04-21T10:15:28;93913.56;;;17.99;45.86
9676;BME280;4876;42.656;23.292;2023-04-21T10:18:10;93906.91;;;17.79;47.11
9676;BME280;4876;42.656;23.292;2023-04-21T10:20:49;93902.41;;;17.49;47.47
9676;BME280;4876;42.656;23.292;2023-04-21T10:23:26;93903.97;;;17.20;47.13
9676;BME280;4876;42.656;23.292;2023-04-21T10:26:00;93902.66;;;17.07;48.04
9676;BME280;4876;42.656;23.292;2023-04-21T10:28:43;93904.22;;;16.78;49.56
9676;BME280;4876;42.656;23.292;2023-04-21T10:31:17;93891.81;;;16.89;49.17
9676;BME280;4876;42.656;23.292;2023-04-21T10:34:15;93906.31;;;16.95;49.51
9676;BME280;4876;42.656;23.292;2023-04-21T10:36:48;93892.28;;;16.68;49.63
9676;BME280;4876;42.656;23.292;2023-04-21T10:39:26;93907.66;;;16.82;50.09
9676;BME280;4876;42.656;23.292;2023-04-21T10:41:54;93918.66;;;17.10;49.70
9676;BME280;4876;42.656;23.292;2023-04-21T10:44:23;93914.13;;;17.11;49.95
9676;BME280;4876;42.656;23.292;2023-04-21T10:46:53;93905.47;;;17.17;50.15
9676;BME280;4876;42.656;23.292;2023-04-21T10:49:21;93908.44;;;17.12;49.59
9676;BME280;4876;42.656;23.292;2023-04-21T10:52:05;93909.69;;;17.22;49.90
9676;BME280;4876;42.656;23.292;2023-04-21T10:54:40;93914.69;;;16.97;48.43
9676;BME280;4876;42.656;23.292;2023-04-21T10:57:09;93914.72;;;17.01;48.92
9676;BME280;4876;42.656;23.292;2023-04-21T10:59:38;93913.66;;;17.05;49.30
9676;BME280;4876;42.656;23.292;2023-04-21T11:02:05;93914.16;;;17.14;49.03
9676;BME280;4876;42.656;23.292;2023-04-21T11:04:33;93907.28;;;17.13;48.47
9676;BME280;4876;42.656;23.292;2023-04-21T11:07:06;93901.91;;;17.06;48.96
9676;BME280;4876;42.656;23.292;2023-04-21T11:09:33;93915.41;;;16.94;49.08
9676;BME280;4876;42.656;23.292;2023-04-21T11:12:02;93905.53;;;16.94;48.35
9676;BME280;4876;42.656;23.292;2023-04-21T11:14:32;93907.03;;;16.65;50.42
9676;BME280;4876;42.656;23.292;2023-04-21T11:17:02;93896.66;;;17.13;48.47
9676;BME280;4876;42.656;23.292;2023-04-21T11:19:31;93904.78;;;17.24;48.37
9676;BME280;4876;42.656;23.292;2023-04-21T11:21:58;93897.56;;;17.25;47.46
9676;BME280;4876;42.656;23.292;2023-04-21T11:24:25;93887.69;;;17.21;47.59
9676;BME280;4876;42.656;23.292;2023-04-21T11:26:51;93893.00;;;16.91;48.20
9676;BME280;4876;42.656;23.292;2023-04-21T11:29:18;93869.34;;;16.56;49.23
9676;BME280;4876;42.656;23.292;2023-04-21T11:31:45;93892.25;;;16.94;48.32
9676;BME280;4876;42.656;23.292;2023-04-21T11:34:18;93892.34;;;16.72;48.40
9676;BME280;4876;42.656;23.292;2023-04-21T11:36:46;93897.03;;;16.82;47.84
9676;BME280;4876;42.656;23.292;2023-04-21T11:39:15;93898.22;;;16.84;47.27
9676;BME280;4876;42.656;23.292;2023-04-21T11:41:45;93901.88;;;16.50;48.72
9676;BME280;4876;42.656;23.292;2023-04-21T11:44:13;93890.41;;;16.42;49.37
9676;BME280;4876;42.656;23.292;2023-04-21T11:46:43;93897.53;;;16.38;49.15
9676;BME280;4876;42.656;23.292;2023-04-21T11:49:14;93903.84;;;16.30;48.97
9676;BME280;4876;42.656;23.292;2023-04-21T11:51:43;93895.78;;;16.00;49.44
9676;BME280;4876;42.656;23.292;2023-04-21T11:54:12;93895.25;;;16.13;49.03
9676;BME280;4876;42.656;23.292;2023-04-21T11:56:40;93895.16;;;16.06;48.63
9676;BME280;4876;42.656;23.292;2023-04-21T11:59:07;93899.13;;;16.20;48.00
9676;BME280;4876;42.656;23.292;2023-04-21T12:01:41;93894.97;;;16.19;48.31
9676;BME280;4876;42.656;23.292;2023-04-21T12:04:12;93902.31;;;16.29;48.27
9676;BME280;4876;42.656;23.292;2023-04-21T12:06:39;93902.47;;;16.39;48.58
9676;BME280;4876;42.656;23.292;2023-04-21T12:09:09;93903.38;;;16.47;48.52
9676;BME280;4876;42.656;23.292;2023-04-21T12:11:46;93915.75;;;16.39;47.98
9676;BME280;4876;42.656;23.292;2023-04-21T12:14:14;93911.25;;;16.43;46.92
9676;BME280;4876;42.656;23.292;2023-04-21T12:16:41;93900.06;;;16.57;47.01
9676;BME280;4876;42.656;23.292;2023-04-21T12:19:08;93902.44;;;16.62;46.41
9676;BME280;4876;42.656;23.292;2023-04-21T12:21:36;93905.47;;;16.64;46.44
9676;BME280;4876;42.656;23.292;2023-04-21T12:24:04;93899.84;;;16.66;46.59
9676;BME280;4876;42.656;23.292;2023-04-21T12:26:33;93914.69;;;16.44;47.61
9676;BME280;4876;42.656;23.292;2023-04-21T12:28:59;93900.84;;;16.58;47.13
9676;BME280;4876;42.656;23.292;2023-04-21T12:31:26;93905.53;;;16.68;47.04
9676;BME280;4876;42.656;23.292;2023-04-21T12:33:53;93906.22;;;16.88;46.94
9676;BME280;4876;42.656;23.292;2023-04-21T12:36:20;93900.19;;;16.91;46.77
9676;BME280;4876;42.656;23.292;2023-04-21T12:38:47;93897.84;;;16.86;47.24
9676;BME280;4876;42.656;23.292;2023-04-21T12:41:13;93897.53;;;16.91;46.76
9676;BME280;4876;42.656;23.292;2023-04-21T12:43:42;93902.03;;;16.87;47.56
9676;BME280;4876;42.656;23.292;2023-04-21T12:46:08;93900.28;;;16.98;46.56
9676;BME280;4876;42.656;23.292;2023-04-21T12:48:35;93905.38;;;16.80;45.96
9676;BME280;4876;42.656;23.292;2023-04-21T12:51:02;93900.81;;;16.81;45.94
9676;BME280;4876;42.656;23.292;2023-04-21T12:53:31;93891.38;;;16.83;45.76
9676;BME280;4876;42.656;23.292;2023-04-21T12:55:57;93896.91;;;17.01;46.19
9676;BME280;4876;42.656;23.292;2023-04-21T12:58:24;93894.84;;;17.17;46.00
9676;BME280;4876;42.656;23.292;2023-04-21T13:00:52;93896.34;;;16.88;47.85
9676;BME280;4876;42.656;23.292;2023-04-21T13:03:19;93891.78;;;16.85;46.79
9676;BME280;4876;42.656;23.292;2023-04-21T13:05:46;93891.81;;;16.89;47.20
9676;BME280;4876;42.656;23.292;2023-04-21T13:08:13;93891.94;;;17.00;46.81
9676;BME280;4876;42.656;23.292;2023-04-21T13:10:40;93887.78;;;16.99;48.08
9676;BME280;4876;42.656;23.292;2023-04-21T13:13:06;93890.56;;;17.09;48.06
9676;BME280;4876;42.656;23.292;2023-04-21T13:15:34;93872.44;;;17.18;47.79
9676;BME280;4876;42.656;23.292;2023-04-21T13:18:02;93876.63;;;17.19;47.98